Time;durP1;ratioP1;P1;durP2;ratioP2;P2;SDS_P1;SDS_P2;PMS_P1;PMS_P2;Temp;Humidity;BMP_temperature;BMP_pressure;BME280_temperature;BME280_humidity;BME280_pressure;Samples;Min_cycle;Max_cycle;Signal;HPM_P1;HPM_P2
2022/10/28 00:01:59;;;;;;;8.15;3.72;;;12.90;89.60;;;;;;5067899;28;20044;-62
2022/10/28 00:04:26;;;;;;;5.75;3.10;;;12.90;89.60;;;;;;5071291;28;20111;-62
2022/10/28 00:06:52;;;;;;;6.57;3.45;;;12.90;89.60;;;;;;5072079;28;20048;-62
2022/10/28 00:09:21;;;;;;;6.20;2.88;;;12.90;89.70;;;;;;5069800;28;20504;-61
2022/10/28 00:11:54;;;;;;;7.32;3.70;;;12.90;89.70;;;;;;5067150;28;20071;-63
2022/10/28 00:14:21;;;;;;;9.05;3.63;;;12.90;89.70;;;;;;5072646;28;20040;-61
2022/10/28 00:16:48;;;;;;;5.75;3.17;;;12.90;89.70;;;;;;5074091;28;20143;-61
2022/10/28 00:19:16;;;;;;;6.15;3.13;;;12.90;89.80;;;;;;5071292;28;20040;-62
2022/10/28 00:21:43;;;;;;;7.13;2.95;;;12.90;89.80;;;;;;5065666;28;20068;-60
2022/10/28 00:24:12;;;;;;;8.65;3.38;;;12.90;89.80;;;;;;5065928;28;20051;-60
2022/10/28 00:26:42;;;;;;;9.27;3.22;;;12.90;89.90;;;;;;5066068;28;20520;-61
2022/10/28 00:29:13;;;;;;;8.82;3.47;;;12.90;89.90;;;;;;5069406;28;20044;-62
2022/10/28 00:31:40;;;;;;;7.65;3.00;;;12.90;89.90;;;;;;5068224;28;20151;-61
2022/10/28 00:34:12;;;;;;;5.75;3.00;;;12.90;90.00;;;;;;5070127;28;20051;-64
2022/10/28 00:36:41;;;;;;;8.43;3.25;;;12.90;90.00;;;;;;5069292;28;20048;-63
2022/10/28 00:39:11;;;;;;;9.80;3.13;;;13.00;90.00;;;;;;5068660;28;20131;-62
2022/10/28 00:41:42;;;;;;;6.20;3.10;;;12.90;90.00;;;;;;5066964;28;20501;-62
2022/10/28 00:44:43;;;;;;;7.90;2.80;;;12.90;90.00;;;;;;5065120;28;20053;-62
2022/10/28 00:47:13;;;;;;;;;;;12.90;90.10;;;;;;5067649;28;20118;-63
2022/10/28 00:49:41;;;;;;;8.77;2.75;;;12.90;90.10;;;;;;5068935;28;19920;-61
2022/10/28 00:52:11;;;;;;;7.13;3.15;;;12.90;90.00;;;;;;5072016;28;20513;-60
2022/10/28 00:54:39;;;;;;;5.75;2.90;;;12.90;89.90;;;;;;5067836;28;20052;-62
2022/10/28 00:57:12;;;;;;;6.80;3.45;;;12.90;89.90;;;;;;5062805;28;20058;-62
2022/10/28 00:59:43;;;;;;;6.25;2.65;;;12.90;90.00;;;;;;5066989;28;20046;-60
2022/10/28 01:02:10;;;;;;;7.70;3.15;;;12.90;90.00;;;;;;5067948;28;20040;-62
2022/10/28 01:04:38;;;;;;;5.75;3.20;;;12.80;90.00;;;;;;5068601;28;20470;-61
2022/10/28 01:07:06;;;;;;;5.47;2.58;;;12.80;89.90;;;;;;5061280;28;20056;-61
2022/10/28 01:09:33;;;;;;;7.90;2.83;;;12.80;89.90;;;;;;5066064;28;20457;-60
2022/10/28 01:12:09;;;;;;;10.05;3.00;;;12.80;90.00;;;;;;5071374;28;20509;-61
2022/10/28 01:14:51;;;;;;;6.95;2.83;;;12.80;90.00;;;;;;5063585;28;20040;-60
2022/10/28 01:17:31;;;;;;;6.20;3.08;;;12.80;90.00;;;;;;5069224;28;20048;-61
2022/10/28 01:20:16;;;;;;;;;;;12.80;90.20;;;;;;5068917;28;20072;-60
2022/10/28 01:22:51;;;;;;;6.90;2.92;;;12.80;90.10;;;;;;5070021;28;20004;-61
2022/10/28 01:25:57;;;;;;;6.03;2.92;;;12.90;90.20;;;;;;5062268;28;20048;-61
2022/10/28 01:28:51;;;;;;;5.70;2.20;;;12.90;90.30;;;;;;5066642;28;20135;-62
2022/10/28 01:31:36;;;;;;;7.32;2.90;;;12.90;90.30;;;;;;5067302;28;20072;-60
2022/10/28 01:34:10;;;;;;;5.85;3.10;;;12.90;90.30;;;;;;5067313;28;20490;-61
2022/10/28 01:36:42;;;;;;;6.80;2.90;;;12.90;90.30;;;;;;5065427;28;20132;-61
2022/10/28 01:39:23;;;;;;;6.32;2.78;;;12.90;90.40;;;;;;5070352;28;20517;-62
2022/10/28 01:41:54;;;;;;;7.43;2.75;;;12.80;90.40;;;;;;5070390;28;20056;-62
2022/10/28 01:44:27;;;;;;;4.45;2.60;;;12.80;90.40;;;;;;5067944;28;20037;-61
2022/10/28 01:47:03;;;;;;;8.32;2.90;;;12.80;90.40;;;;;;5066532;28;20048;-62
2022/10/28 01:49:38;;;;;;;6.07;2.67;;;12.70;90.30;;;;;;5071869;28;20044;-61
2022/10/28 01:52:08;;;;;;;6.45;2.72;;;12.70;90.20;;;;;;5075049;28;20045;-61
2022/10/28 01:54:37;;;;;;;6.57;2.42;;;12.70;90.20;;;;;;5070574;28;20114;-62
2022/10/28 01:57:05;;;;;;;6.72;2.95;;;12.70;90.10;;;;;;5073210;28;20041;-60
2022/10/28 01:59:34;;;;;;;7.80;2.55;;;12.60;90.10;;;;;;5069144;28;20048;-60
2022/10/28 02:02:02;;;;;;;5.20;2.40;;;12.60;90.10;;;;;;5069402;28;20094;-62
2022/10/28 02:04:30;;;;;;;5.97;2.65;;;12.60;90.10;;;;;;5067840;28;20075;-61
2022/10/28 02:06:59;;;;;;;7.03;2.55;;;12.60;90.10;;;;;;5065044;28;20047;-60
2022/10/28 02:09:38;;;;;;;6.53;2.55;;;12.60;90.10;;;;;;5077450;28;20044;-61
2022/10/28 02:12:22;;;;;;;6.03;2.60;;;12.50;90.10;;;;;;5064261;28;20045;-62
2022/10/28 02:15:14;;;;;;;3.95;2.30;;;12.60;90.00;;;;;;5074271;28;20060;-60
2022/10/28 02:17:53;;;;;;;4.95;2.35;;;12.50;90.00;;;;;;5070334;28;20048;-61
2022/10/28 02:20:31;;;;;;;5.82;2.88;;;12.50;90.00;;;;;;5064041;28;20053;-61
2022/10/28 02:23:08;;;;;;;5.45;2.47;;;12.50;90.00;;;;;;5065577;28;20056;-61
2022/10/28 02:25:42;;;;;;;7.30;2.63;;;12.40;90.00;;;;;;5066494;28;20041;-60
2022/10/28 02:28:13;;;;;;;6.35;2.63;;;12.50;89.90;;;;;;5063225;28;20072;-61
2022/10/28 02:30:45;;;;;;;5.75;2.90;;;12.50;90.10;;;;;;5068652;28;20041;-62
2022/10/28 02:33:18;;;;;;;6.25;3.03;;;12.50;90.00;;;;;;5063099;28;20048;-61
2022/10/28 02:35:48;;;;;;;7.20;3.00;;;12.50;90.10;;;;;;5066799;28;20087;-60
2022/10/28 02:38:20;;;;;;;5.88;2.75;;;12.50;90.10;;;;;;5063412;28;20056;-60
2022/10/28 02:40:53;;;;;;;8.80;2.60;;;12.60;90.20;;;;;;5068662;28;20045;-61
2022/10/28 02:43:22;;;;;;;4.75;2.70;;;12.60;90.30;;;;;;5071694;28;20049;-61
2022/10/28 02:45:54;;;;;;;4.85;2.47;;;12.60;90.40;;;;;;5071535;28;20059;-61
2022/10/28 02:48:28;;;;;;;5.60;2.65;;;12.60;90.40;;;;;;5076437;28;20465;-61
2022/10/28 02:51:01;;;;;;;8.43;2.47;;;12.60;90.40;;;;;;5073809;28;20045;-61
2022/10/28 02:53:32;;;;;;;8.82;2.97;;;12.60;90.50;;;;;;5072160;28;20049;-62
2022/10/28 02:56:02;;;;;;;6.30;2.60;;;12.60;90.50;;;;;;5072517;28;20052;-59
2022/10/28 02:58:37;;;;;;;5.20;3.00;;;12.60;90.50;;;;;;5068857;28;20060;-61
2022/10/28 03:01:04;;;;;;;6.38;2.63;;;12.70;90.50;;;;;;5061431;28;20577;-62
2022/10/28 03:03:32;;;;;;;5.18;2.80;;;12.60;90.60;;;;;;5071773;28;20497;-61
2022/10/28 03:05:59;;;;;;;7.13;2.30;;;12.60;90.60;;;;;;5064160;28;20048;-61
2022/10/28 03:08:26;;;;;;;3.63;2.25;;;12.60;90.60;;;;;;5081000;28;20047;-60
2022/10/28 03:10:53;;;;;;;6.07;2.55;;;12.60;90.50;;;;;;5069827;28;20056;-60
2022/10/28 03:13:20;;;;;;;4.68;2.58;;;12.60;90.60;;;;;;5073557;28;20043;-62
2022/10/28 03:15:47;;;;;;;5.75;2.58;;;12.60;90.60;;;;;;5066651;28;20044;-61
2022/10/28 03:18:14;;;;;;;6.32;2.72;;;12.60;90.60;;;;;;5070410;28;20056;-61
2022/10/28 03:20:42;;;;;;;6.95;2.85;;;12.60;90.70;;;;;;5071243;28;20051;-61
2022/10/28 03:23:09;;;;;;;5.88;2.40;;;12.60;90.60;;;;;;5073168;28;20036;-62
2022/10/28 03:25:36;;;;;;;7.22;2.58;;;12.60;90.70;;;;;;5067828;28;20730;-62
2022/10/28 03:28:03;;;;;;;6.93;2.92;;;12.60;90.70;;;;;;5067333;28;20052;-60
2022/10/28 03:30:30;;;;;;;8.18;2.83;;;12.60;90.80;;;;;;5072652;28;20072;-62
2022/10/28 03:32:57;;;;;;;5.53;2.78;;;12.60;90.90;;;;;;5071826;28;20044;-60
2022/10/28 03:35:24;;;;;;;7.03;2.95;;;12.60;90.80;;;;;;5071100;28;20055;-62
2022/10/28 03:37:52;;;;;;;7.93;2.95;;;12.70;90.70;;;;;;5074718;28;20045;-62
2022/10/28 03:40:19;;;;;;;9.52;4.47;;;12.60;90.60;;;;;;5070903;28;20505;-60
2022/10/28 03:42:46;;;;;;;6.40;2.47;;;12.60;90.70;;;;;;5065855;28;20094;-60
2022/10/28 03:45:13;;;;;;;7.43;2.85;;;12.70;90.40;;;;;;5065250;28;20041;-62
2022/10/28 03:47:41;;;;;;;7.50;2.65;;;12.70;90.40;;;;;;5071133;28;20041;-62
2022/10/28 03:50:09;;;;;;;4.45;2.40;;;12.70;90.60;;;;;;5068233;28;20045;-60
2022/10/28 03:52:36;;;;;;;11.35;3.05;;;12.70;90.70;;;;;;5070256;28;20147;-62
2022/10/28 03:55:05;;;;;;;8.68;2.90;;;12.70;90.50;;;;;;5072767;28;20136;-61
2022/10/28 03:57:32;;;;;;;7.18;3.08;;;12.70;90.90;;;;;;5067794;28;20060;-61
2022/10/28 03:59:59;;;;;;;6.15;2.80;;;12.70;90.60;;;;;;5065538;28;20045;-61
2022/10/28 04:02:26;;;;;;;7.78;2.70;;;12.70;90.70;;;;;;5064553;28;20040;-62
2022/10/28 04:04:53;;;;;;;6.82;3.28;;;12.70;90.50;;;;;;5071055;28;20060;-62
2022/10/28 04:07:20;;;;;;;5.47;2.75;;;12.70;90.60;;;;;;5065986;28;20048;-62
2022/10/28 04:09:50;;;;;;;10.60;3.78;;;12.70;90.60;;;;;;5071093;28;20066;-61
2022/10/28 04:12:18;;;;;;;7.07;2.97;;;12.80;90.60;;;;;;5072818;28;20087;-62
2022/10/28 04:14:46;;;;;;;8.57;3.58;;;12.80;90.90;;;;;;5071615;28;20076;-62
2022/10/28 04:17:13;;;;;;;5.47;3.03;;;12.80;91.10;;;;;;5066256;28;20057;-61
2022/10/28 04:19:40;;;;;;;8.00;3.72;;;12.80;91.20;;;;;;5071755;28;20501;-60
2022/10/28 04:22:07;;;;;;;9.43;3.55;;;12.80;90.90;;;;;;5071017;28;20498;-61
2022/10/28 04:24:35;;;;;;;7.90;3.53;;;12.80;91.40;;;;;;5067114;28;20044;-62
2022/10/28 04:27:01;;;;;;;6.35;2.67;;;12.80;90.90;;;;;;5066897;28;20051;-61
2022/10/28 04:29:31;;;;;;;9.38;3.55;;;12.80;90.80;;;;;;5071178;28;20052;-60
2022/10/28 04:31:59;;;;;;;8.65;3.20;;;12.90;91.10;;;;;;5071227;28;20044;-61
2022/10/28 04:34:26;;;;;;;8.48;3.20;;;12.90;91.30;;;;;;5063803;28;20045;-61
2022/10/28 04:36:53;;;;;;;6.07;2.70;;;12.90;91.20;;;;;;5067375;28;20057;-61
2022/10/28 04:39:19;;;;;;;6.30;2.72;;;12.90;90.90;;;;;;5069867;28;20091;-59
2022/10/28 04:41:47;;;;;;;6.00;3.13;;;12.90;91.30;;;;;;5069064;28;20048;-61
2022/10/28 04:44:14;;;;;;;7.15;3.00;;;12.90;91.30;;;;;;5066719;28;20045;-59
2022/10/28 04:46:42;;;;;;;6.35;3.10;;;12.90;91.20;;;;;;5069753;28;20044;-61
2022/10/28 04:49:10;;;;;;;6.28;3.00;;;12.90;91.60;;;;;;5067088;28;20404;-61
2022/10/28 04:51:37;;;;;;;5.53;2.80;;;13.00;91.70;;;;;;5069496;28;20044;-61
2022/10/28 04:54:04;;;;;;;8.50;3.40;;;12.90;91.70;;;;;;5065992;28;20474;-60
2022/10/28 04:56:32;;;;;;;7.72;2.97;;;12.90;91.30;;;;;;5062618;28;20054;-63
2022/10/28 04:58:59;;;;;;;5.68;2.90;;;12.90;91.40;;;;;;5068114;28;20040;-61
2022/10/28 05:01:26;;;;;;;6.32;3.08;;;13.00;91.80;;;;;;5065489;28;20151;-60
2022/10/28 05:03:54;;;;;;;8.07;3.40;;;13.00;91.60;;;;;;5063111;28;20163;-62
2022/10/28 05:06:21;;;;;;;5.40;3.28;;;13.10;92.20;;;;;;5070739;28;20048;-63
2022/10/28 05:08:48;;;;;;;7.63;2.95;;;13.10;92.20;;;;;;5066448;28;20044;-60
2022/10/28 05:11:15;;;;;;;5.55;2.80;;;13.00;91.60;;;;;;5070352;28;20132;-62
2022/10/28 05:13:42;;;;;;;6.72;3.25;;;13.00;91.40;;;;;;5061251;28;20041;-60
2022/10/28 05:16:09;;;;;;;8.40;3.30;;;13.00;91.70;;;;;;5071864;28;20044;-60
2022/10/28 05:18:36;;;;;;;8.02;3.60;;;13.00;91.60;;;;;;5073287;28;20044;-62
2022/10/28 05:21:04;;;;;;;7.38;3.83;;;13.00;91.80;;;;;;5070221;28;20041;-62
2022/10/28 05:23:31;;;;;;;6.72;2.97;;;13.00;91.90;;;;;;5070244;28;20454;-62
2022/10/28 05:25:58;;;;;;;7.47;3.40;;;13.00;92.10;;;;;;5074429;28;20513;-60
2022/10/28 05:28:25;;;;;;;6.57;3.10;;;13.00;91.50;;;;;;5064388;28;20068;-60
2022/10/28 05:30:52;;;;;;;8.63;3.88;;;13.00;91.70;;;;;;5070080;28;20079;-60
2022/10/28 05:33:19;;;;;;;6.15;3.22;;;13.00;91.90;;;;;;5065177;28;20040;-61
2022/10/28 05:35:46;;;;;;;6.10;3.00;;;13.00;91.50;;;;;;5070144;28;20761;-62
2022/10/28 05:38:14;;;;;;;6.70;2.97;;;13.10;91.60;;;;;;5067081;28;20049;-61
2022/10/28 05:40:41;;;;;;;9.77;2.88;;;13.10;91.70;;;;;;5067854;28;20040;-61
2022/10/28 05:43:10;;;;;;;6.95;3.13;;;13.10;91.50;;;;;;5066655;28;20143;-61
2022/10/28 05:45:37;;;;;;;7.28;3.60;;;13.10;92.50;;;;;;5067183;28;20098;-61
2022/10/28 05:48:04;;;;;;;6.90;3.08;;;13.10;92.60;;;;;;5072216;28;20428;-61
2022/10/28 05:50:37;;;;;;;7.45;2.90;;;13.20;92.70;;;;;;5075107;28;20123;-61
2022/10/28 05:53:04;;;;;;;5.70;3.28;;;13.20;92.70;;;;;;5074510;28;20551;-61
2022/10/28 05:55:34;;;;;;;6.40;2.67;;;13.20;92.50;;;;;;5069734;28;20379;-60
2022/10/28 05:58:01;;;;;;;6.70;3.28;;;13.30;92.50;;;;;;5077355;28;20518;-61
2022/10/28 06:00:29;;;;;;;5.30;2.97;;;13.20;92.40;;;;;;5074802;28;20094;-62
2022/10/28 06:03:05;;;;;;;8.75;3.30;;;13.20;92.00;;;;;;5069585;28;20055;-61
2022/10/28 06:05:33;;;;;;;5.70;2.92;;;13.20;91.80;;;;;;5067564;28;20048;-60
2022/10/28 06:08:00;;;;;;;7.22;3.05;;;13.20;91.90;;;;;;5074805;28;20048;-61
2022/10/28 06:10:31;;;;;;;5.70;3.25;;;13.10;91.90;;;;;;5070616;28;20041;-60
2022/10/28 06:12:58;;;;;;;7.55;2.55;;;13.20;91.40;;;;;;5072394;28;20461;-62
2022/10/28 06:15:26;;;;;;;6.68;2.90;;;13.10;91.60;;;;;;5073513;28;20455;-61
2022/10/28 06:17:53;;;;;;;7.13;3.70;;;13.10;92.00;;;;;;5074641;28;20532;-61
2022/10/28 06:20:21;;;;;;;7.07;3.28;;;13.10;92.10;;;;;;5073270;28;20044;-62
2022/10/28 06:22:49;;;;;;;5.60;3.42;;;13.10;91.90;;;;;;5071693;28;20151;-62
2022/10/28 06:25:16;;;;;;;7.75;3.75;;;13.10;91.60;;;;;;5064754;28;20484;-61
2022/10/28 06:27:45;;;;;;;8.20;3.15;;;13.10;91.90;;;;;;5073914;28;20456;-61
2022/10/28 06:30:13;;;;;;;7.63;3.33;;;13.10;91.90;;;;;;5069910;28;20550;-62
2022/10/28 06:32:39;;;;;;;5.25;3.20;;;13.10;92.00;;;;;;5074219;28;20052;-61
2022/10/28 06:35:07;;;;;;;6.53;4.07;;;13.10;92.00;;;;;;5074342;28;20048;-61
2022/10/28 06:37:36;;;;;;;6.20;3.35;;;13.10;92.00;;;;;;5073669;28;20502;-62
2022/10/28 06:40:04;;;;;;;7.60;3.67;;;13.10;92.00;;;;;;5072275;28;20083;-61
2022/10/28 06:42:31;;;;;;;7.65;3.60;;;13.10;91.90;;;;;;5081260;28;20047;-61
2022/10/28 06:44:59;;;;;;;10.23;3.67;;;13.10;91.50;;;;;;5070708;28;20037;-62
2022/10/28 06:47:26;;;;;;;7.00;3.42;;;13.10;91.40;;;;;;5068053;28;20060;-60
2022/10/28 06:49:53;;;;;;;7.82;3.53;;;13.10;91.20;;;;;;5069065;28;20052;-61
2022/10/28 06:52:20;;;;;;;7.22;3.75;;;13.10;91.20;;;;;;5063734;28;20120;-61
2022/10/28 06:54:47;;;;;;;10.00;3.92;;;13.10;91.30;;;;;;5065951;28;20422;-61
2022/10/28 06:57:14;;;;;;;11.32;4.10;;;13.20;91.80;;;;;;5066944;28;20044;-61
2022/10/28 06:59:41;;;;;;;7.18;3.53;;;13.10;91.20;;;;;;5067686;28;20536;-62
2022/10/28 07:02:11;;;;;;;8.40;3.88;;;13.10;91.50;;;;;;5064612;28;20045;-62
2022/10/28 07:04:38;;;;;;;9.38;3.88;;;13.10;91.50;;;;;;5065432;28;20053;-62
2022/10/28 07:07:05;;;;;;;6.43;3.40;;;13.10;91.40;;;;;;5064364;28;20394;-61
2022/10/28 07:09:32;;;;;;;8.52;3.70;;;13.20;91.50;;;;;;5067057;28;20044;-63
2022/10/28 07:11:59;;;;;;;7.47;3.67;;;13.10;91.40;;;;;;5072320;28;20379;-60
2022/10/28 07:14:26;;;;;;;7.68;3.25;;;13.20;91.20;;;;;;5064676;28;20406;-60
2022/10/28 07:16:53;;;;;;;5.70;2.97;;;13.20;91.20;;;;;;5069170;28;20151;-60
2022/10/28 07:19:21;;;;;;;7.32;3.63;;;13.20;91.50;;;;;;5065582;28;20474;-62
2022/10/28 07:21:48;;;;;;;6.85;3.20;;;13.20;91.40;;;;;;5070649;28;20044;-62
2022/10/28 07:24:15;;;;;;;7.18;3.15;;;13.20;91.30;;;;;;5065636;28;20049;-62
2022/10/28 07:26:42;;;;;;;7.60;3.58;;;13.20;91.30;;;;;;5064613;28;20040;-62
2022/10/28 07:29:09;;;;;;;6.97;3.33;;;13.20;91.40;;;;;;5065927;28;20057;-61
2022/10/28 07:31:36;;;;;;;8.60;3.45;;;13.20;91.60;;;;;;5071039;28;20494;-61
2022/10/28 07:34:03;;;;;;;7.00;3.10;;;13.30;91.80;;;;;;5076765;28;20048;-60
2022/10/28 07:36:31;;;;;;;6.40;3.55;;;13.40;91.90;;;;;;5079487;28;20052;-60
2022/10/28 07:38:58;;;;;;;6.82;2.97;;;13.40;92.00;;;;;;5065444;28;20482;-61
2022/10/28 07:41:25;;;;;;;7.53;3.30;;;13.50;92.00;;;;;;5066558;28;20048;-61
2022/10/28 07:43:52;;;;;;;7.75;3.75;;;13.50;91.90;;;;;;5067453;28;20444;-62
2022/10/28 07:46:20;;;;;;;8.23;2.97;;;13.60;92.20;;;;;;5068429;28;20056;-61
2022/10/28 07:48:47;;;;;;;6.45;3.35;;;13.60;92.00;;;;;;5068089;28;20040;-61
2022/10/28 07:51:15;;;;;;;5.45;3.15;;;13.60;91.90;;;;;;5073111;28;20143;-62
2022/10/28 07:53:43;;;;;;;6.57;2.97;;;13.70;91.80;;;;;;5062867;28;20460;-62
2022/10/28 07:56:13;;;;;;;6.80;3.13;;;13.70;91.90;;;;;;5069546;28;20075;-60
2022/10/28 07:58:40;;;;;;;5.47;3.28;;;13.70;92.00;;;;;;5069734;28;20052;-62
2022/10/28 08:01:09;;;;;;;11.57;3.60;;;13.80;92.10;;;;;;5070720;28;20044;-62
2022/10/28 08:03:37;;;;;;;7.22;3.35;;;13.70;92.00;;;;;;5070230;28;20080;-60
2022/10/28 08:06:05;;;;;;;7.25;3.53;;;13.80;92.00;;;;;;5071795;28;20469;-60
2022/10/28 08:08:33;;;;;;;8.27;3.28;;;13.90;92.10;;;;;;5070813;28;20145;-61
2022/10/28 08:11:09;;;;;;;9.00;3.40;;;13.90;92.10;;;;;;5071168;28;20127;-62
2022/10/28 08:13:36;;;;;;;8.40;3.38;;;14.10;92.20;;;;;;5071047;28;20102;-61
2022/10/28 08:16:03;;;;;;;6.78;3.50;;;14.10;92.30;;;;;;5072130;28;20044;-61
2022/10/28 08:18:33;;;;;;;6.20;3.45;;;14.20;92.60;;;;;;5072093;28;20052;-61
2022/10/28 08:21:00;;;;;;;8.60;4.35;;;14.20;92.60;;;;;;5066176;28;20131;-60
2022/10/28 08:23:28;;;;;;;6.88;3.58;;;14.20;92.30;;;;;;5070036;28;20076;-62
2022/10/28 08:25:55;;;;;;;9.20;3.58;;;14.30;92.40;;;;;;5070868;28;20453;-61
2022/10/28 08:28:24;;;;;;;7.78;3.15;;;14.30;92.40;;;;;;5069827;28;20048;-61
2022/10/28 08:30:51;;;;;;;6.13;3.50;;;14.40;92.20;;;;;;5072295;28;20048;-61
2022/10/28 08:33:18;;;;;;;8.07;3.40;;;14.40;92.00;;;;;;5068970;28;20047;-61
2022/10/28 08:35:49;;;;;;;6.95;3.97;;;14.40;91.80;;;;;;5068053;28;20056;-61
2022/10/28 08:38:18;;;;;;;7.35;3.17;;;14.50;91.70;;;;;;5066626;28;20075;-61
2022/10/28 08:40:52;;;;;;;6.03;3.70;;;14.50;91.70;;;;;;5062089;28;20067;-61
2022/10/28 08:43:27;;;;;;;11.32;3.28;;;14.60;91.90;;;;;;5070633;28;20049;-60
2022/10/28 08:46:01;;;;;;;7.40;3.38;;;14.60;91.40;;;;;;5066293;28;20128;-61
2022/10/28 08:48:33;;;;;;;6.63;3.08;;;14.60;91.60;;;;;;5070970;28;20045;-61
2022/10/28 08:51:13;;;;;;;6.35;3.10;;;14.60;91.50;;;;;;5065821;28;20068;-62
2022/10/28 08:53:46;;;;;;;6.35;3.13;;;14.70;91.50;;;;;;5068785;28;20490;-60
2022/10/28 08:56:18;;;;;;;6.38;2.85;;;14.70;91.40;;;;;;5062917;28;20044;-61
2022/10/28 08:58:50;;;;;;;6.82;3.10;;;14.80;91.30;;;;;;5069974;28;20603;-60
2022/10/28 09:01:24;;;;;;;6.15;2.85;;;14.80;91.40;;;;;;5065872;28;20048;-60
2022/10/28 09:03:53;;;;;;;8.07;3.17;;;14.90;91.30;;;;;;5068640;28;20139;-61
2022/10/28 09:06:20;;;;;;;9.05;3.28;;;14.90;91.10;;;;;;5066562;28;20059;-61
2022/10/28 09:08:48;;;;;;;8.07;3.45;;;14.90;91.40;;;;;;5069708;28;20046;-60
2022/10/28 09:11:43;;;;;;;7.65;2.95;;;15.10;91.80;;;;;;5068048;28;20044;-59
2022/10/28 09:14:24;;;;;;;8.20;3.50;;;15.10;91.60;;;;;;5067782;28;20441;-62
2022/10/28 09:17:03;;;;;;;7.30;3.00;;;15.10;91.60;;;;;;5071555;28;20055;-61
2022/10/28 09:19:39;;;;;;;5.57;3.00;;;15.20;91.40;;;;;;5066841;28;20058;-60
2022/10/28 09:22:23;;;;;;;5.45;3.17;;;15.20;91.30;;;;;;5070051;28;20041;-61
2022/10/28 09:24:53;;;;;;;6.30;3.10;;;15.30;91.10;;;;;;5066926;28;20098;-61
2022/10/28 09:27:32;;;;;;;4.97;2.88;;;15.30;90.80;;;;;;5065183;28;20052;-61
2022/10/28 09:30:18;;;;;;;6.15;2.95;;;15.40;91.10;;;;;;5064731;28;20037;-61
2022/10/28 09:32:53;;;;;;;7.25;3.05;;;15.40;91.00;;;;;;5068968;28;20492;-59
2022/10/28 09:35:24;;;;;;;6.38;3.25;;;15.40;90.90;;;;;;5066334;28;20082;-60
2022/10/28 09:37:59;;;;;;;9.35;3.60;;;15.50;90.70;;;;;;5068555;28;20102;-60
2022/10/28 09:40:29;;;;;;;6.32;3.08;;;15.50;91.00;;;;;;5060760;28;20045;-61
2022/10/28 09:43:06;;;;;;;5.72;3.40;;;15.50;91.00;;;;;;5063776;28;20049;-61
2022/10/28 09:45:40;;;;;;;7.05;2.97;;;15.50;91.10;;;;;;5063731;28;20036;-61
2022/10/28 09:48:16;;;;;;;7.95;3.42;;;15.50;90.90;;;;;;5062838;28;20048;-61
2022/10/28 09:50:45;;;;;;;4.85;2.70;;;15.60;90.90;;;;;;5067349;28;20037;-60
2022/10/28 09:53:21;;;;;;;6.18;3.70;;;15.60;90.90;;;;;;5062596;28;20390;-61
2022/10/28 09:55:50;;;;;;;6.25;3.08;;;15.60;90.90;;;;;;5065399;28;20056;-61
2022/10/28 09:58:18;;;;;;;5.60;3.10;;;15.70;90.70;;;;;;5069337;28;20053;-59
2022/10/28 10:00:49;;;;;;;4.32;2.60;;;15.70;90.50;;;;;;5068116;28;20033;-60
2022/10/28 10:03:20;;;;;;;8.07;3.00;;;15.80;90.70;;;;;;5067293;28;20495;-60
2022/10/28 10:05:50;;;;;;;8.38;2.97;;;15.90;90.30;;;;;;5066810;28;20053;-62
2022/10/28 10:08:20;;;;;;;4.82;2.40;;;16.00;90.20;;;;;;5071604;28;20651;-60
2022/10/28 10:10:49;;;;;;;;;;;16.00;90.10;;;;;;5073327;28;20048;-61
2022/10/28 10:13:20;;;;;;;7.45;2.50;;;16.10;90.00;;;;;;5071082;28;19948;-61
2022/10/28 10:15:53;;;;;;;7.32;2.75;;;16.10;90.00;;;;;;5075090;28;20056;-60
2022/10/28 10:18:24;;;;;;;7.60;2.80;;;16.10;90.10;;;;;;5069364;28;20048;-62
2022/10/28 10:20:54;;;;;;;6.47;2.90;;;16.20;90.00;;;;;;5060723;28;20506;-61
2022/10/28 10:23:22;;;;;;;;;;;16.20;90.00;;;;;;5068654;28;20048;-62
2022/10/28 10:25:55;;;;;;;6.63;2.83;;;16.30;90.00;;;;;;5074561;28;19935;-61
2022/10/28 10:28:23;;;;;;;5.90;2.75;;;16.40;89.80;;;;;;5071780;28;20106;-62
2022/10/28 10:30:54;;;;;;;5.82;2.42;;;16.40;89.70;;;;;;5068571;28;20091;-63
2022/10/28 10:33:23;;;;;;;8.55;3.10;;;16.50;89.70;;;;;;5074157;28;20075;-61
2022/10/28 10:35:56;;;;;;;4.65;2.50;;;16.60;89.60;;;;;;5076970;28;20040;-61
2022/10/28 10:38:23;;;;;;;4.55;2.42;;;16.60;89.50;;;;;;5065757;28;20053;-61
2022/10/28 10:40:51;;;;;;;6.13;2.60;;;16.60;89.50;;;;;;5074304;28;20086;-62
2022/10/28 10:43:24;;;;;;;6.57;2.50;;;16.60;89.40;;;;;;5073044;28;20486;-61
2022/10/28 10:46:02;;;;;;;7.85;2.95;;;16.60;89.40;;;;;;5061950;28;20051;-62
2022/10/28 10:48:32;;;;;;;7.30;2.60;;;16.70;89.40;;;;;;5070560;28;20044;-60
2022/10/28 10:51:05;;;;;;;5.13;2.70;;;16.70;89.40;;;;;;5071437;28;20045;-61
2022/10/28 10:53:33;;;;;;;8.57;2.63;;;16.70;89.20;;;;;;5073406;28;20059;-62
2022/10/28 10:56:03;;;;;;;5.35;2.08;;;16.70;89.20;;;;;;5072617;28;20404;-60
2022/10/28 10:58:32;;;;;;;8.45;3.20;;;16.80;89.10;;;;;;5073887;28;20045;-62
2022/10/28 11:01:04;;;;;;;6.20;2.63;;;16.80;89.10;;;;;;5068284;28;20048;-62
2022/10/28 11:03:35;;;;;;;5.57;2.47;;;16.80;89.20;;;;;;5066640;28;20145;-61
2022/10/28 11:06:05;;;;;;;5.03;2.55;;;16.80;89.00;;;;;;5065338;28;20067;-61
2022/10/28 11:08:36;;;;;;;5.78;2.20;;;16.80;89.10;;;;;;5058810;28;20049;-62
2022/10/28 11:11:10;;;;;;;5.15;2.30;;;16.80;89.00;;;;;;5068832;28;20048;-61
2022/10/28 11:13:37;;;;;;;6.07;2.45;;;16.80;89.00;;;;;;5072793;28;20510;-61
2022/10/28 11:16:16;;;;;;;5.63;2.20;;;16.90;89.00;;;;;;5069126;28;20076;-62
2022/10/28 11:18:44;;;;;;;7.45;2.80;;;16.90;88.90;;;;;;5066358;28;20064;-61
2022/10/28 11:21:41;;;;;;;4.85;2.25;;;16.90;88.80;;;;;;5068668;28;20071;-60
2022/10/28 11:24:54;;;;;;;7.40;2.85;;;17.00;88.90;;;;;;5070133;28;20080;-61
2022/10/28 11:27:33;;;;;;;4.68;2.45;;;17.00;88.80;;;;;;5063893;28;20056;-61
2022/10/28 11:30:01;;;;;;;5.18;1.98;;;17.00;88.90;;;;;;5064297;28;20059;-61
2022/10/28 11:32:53;;;;;;;11.10;3.08;;;17.10;88.80;;;;;;5067733;28;20486;-60
2022/10/28 11:35:43;;;;;;;7.15;2.30;;;17.00;88.60;;;;;;5068919;28;20048;-60
2022/10/28 11:38:21;;;;;;;6.45;2.60;;;17.00;88.60;;;;;;5064536;28;20047;-60
2022/10/28 11:41:06;;;;;;;5.85;2.80;;;17.00;88.70;;;;;;5063425;28;20040;-61
2022/10/28 11:43:42;;;;;;;5.93;2.50;;;17.00;88.80;;;;;;5065543;28;20075;-62
2022/10/28 11:46:15;;;;;;;4.50;2.50;;;17.00;88.80;;;;;;5062322;28;20154;-60
2022/10/28 11:49:00;;;;;;;6.82;3.10;;;17.00;88.80;;;;;;5066048;28;20075;-61
2022/10/28 11:51:37;;;;;;;8.15;2.72;;;17.00;88.80;;;;;;5064430;28;20119;-64
2022/10/28 11:54:28;;;;;;;5.65;2.67;;;17.00;88.80;;;;;;5064024;28;20083;-60
2022/10/28 11:57:00;;;;;;;6.28;2.70;;;17.10;88.90;;;;;;5059625;28;20067;-62
2022/10/28 11:59:55;;;;;;;7.60;2.55;;;17.10;88.90;;;;;;5069864;28;20052;-60
2022/10/28 12:02:39;;;;;;;5.78;2.60;;;17.10;88.70;;;;;;5067345;28;20445;-62
2022/10/28 12:05:16;;;;;;;5.55;2.35;;;17.10;88.60;;;;;;5063942;28;20044;-61
2022/10/28 12:08:09;;;;;;;6.28;2.40;;;17.10;88.70;;;;;;5063545;28;20079;-61
2022/10/28 12:10:46;;;;;;;8.20;3.30;;;17.10;88.70;;;;;;5057179;28;20495;-62
2022/10/28 12:13:24;;;;;;;6.75;2.67;;;17.10;88.70;;;;;;5066682;28;20106;-62
2022/10/28 12:15:58;;;;;;;9.73;3.00;;;17.10;88.70;;;;;;5061490;28;20333;-61
2022/10/28 12:18:32;;;;;;;4.00;2.10;;;17.10;88.90;;;;;;5065317;28;20171;-60
2022/10/28 12:21:07;;;;;;;6.97;2.63;;;17.10;88.70;;;;;;5069980;28;20055;-61
2022/10/28 12:23:37;;;;;;;7.65;2.80;;;17.20;88.70;;;;;;5069237;28;20060;-60
2022/10/28 12:26:07;;;;;;;6.93;2.47;;;17.20;89.10;;;;;;5059576;28;20059;-60
2022/10/28 12:28:41;;;;;;;6.32;2.63;;;17.20;88.90;;;;;;5071929;28;20507;-60
2022/10/28 12:31:19;;;;;;;7.18;2.65;;;17.30;89.00;;;;;;5067264;28;20044;-60
2022/10/28 12:33:48;;;;;;;4.85;2.65;;;17.30;89.00;;;;;;5067667;28;20044;-61
2022/10/28 12:36:27;;;;;;;7.10;3.28;;;17.40;88.90;;;;;;5070368;28;20051;-60
2022/10/28 12:39:00;;;;;;;8.05;2.97;;;17.40;88.80;;;;;;5070678;28;20052;-61
2022/10/28 12:41:43;;;;;;;3.75;1.85;;;17.50;88.80;;;;;;5067647;28;20067;-61
2022/10/28 12:44:14;;;;;;;5.65;2.40;;;17.50;88.70;;;;;;5071173;28;20130;-61
2022/10/28 12:46:51;;;;;;;6.50;2.50;;;17.60;88.70;;;;;;5064344;28;20045;-61
2022/10/28 12:49:25;;;;;;;4.75;2.90;;;17.60;88.50;;;;;;5058061;28;20364;-62
2022/10/28 12:51:54;;;;;;;6.45;2.75;;;17.60;88.60;;;;;;5068711;28;20078;-61
2022/10/28 12:54:27;;;;;;;7.80;2.53;;;17.60;88.60;;;;;;5062773;28;20047;-60
2022/10/28 12:57:03;;;;;;;5.93;2.55;;;17.70;88.40;;;;;;5070048;28;20050;-60
2022/10/28 12:59:35;;;;;;;6.60;2.58;;;17.70;88.60;;;;;;5065928;28;20052;-60
2022/10/28 13:02:04;;;;;;;5.22;2.42;;;17.80;88.60;;;;;;5064736;28;20506;-61
2022/10/28 13:04:31;;;;;;;6.50;2.35;;;17.80;88.40;;;;;;5058421;28;20053;-61
2022/10/28 13:07:28;;;;;;;7.45;2.78;;;17.80;88.30;;;;;;5065434;28;20059;-61
2022/10/28 13:10:16;;;;;;;6.32;2.33;;;17.90;88.10;;;;;;5063777;28;20139;-60